Seagoville's Hourly Summary for Monday, April 17, 2017
Hour Temp
(f)
RH
(%)
Solar Rad.
(MJ/m2)
Rainfall
(in)
Wind
(mph)
4/17/2017 12:00 AM 69 86 0 0 3.35
4/17/2017 1:00 AM 70 86 0 0 6.11
4/17/2017 2:00 AM 70 88 0 0 3.62
4/17/2017 3:00 AM 69 91 0 0 3.84
4/17/2017 4:00 AM 69 90 0 0 5.05
4/17/2017 5:00 AM 68 88 0 0 6.64
4/17/2017 6:00 AM 67 90 0 0 4.31
4/17/2017 7:00 AM 65 95 0.1 0 2.63
4/17/2017 8:00 AM 67 91 0.26 0 5.31
4/17/2017 9:00 AM 68 89 0.43 0 4.38
4/17/2017 10:00 AM 70 84 0.65 0 5.26
4/17/2017 11:00 AM 72 73 0.95 0 3.59
4/17/2017 12:00 PM 74 68 1.43 0 6.61
4/17/2017 1:00 PM 69 74 0.9 0.03 11.67
4/17/2017 2:00 PM 69 73 0.79 0.01 8.75
4/17/2017 3:00 PM 70 70 0.82 0 8.83
4/17/2017 4:00 PM 67 73 0.15 0.03 6.77
4/17/2017 5:00 PM 64 91 0.03 0.12 8.7
4/17/2017 6:00 PM 63 94 0.02 0.42 4.91
4/17/2017 7:00 PM 63 94 0.01 0.06 5.14
4/17/2017 8:00 PM 65 84 0 0 5.57
4/17/2017 9:00 PM 65 82 0 0 4.75
4/17/2017 10:00 PM 65 88 0 0 4.69
4/17/2017 11:00 PM 64 92 0 0 4.46
Data Summary 67 84 6.54 0.67 5.62